Accueil
METAR-TAF:

METAR-TAF

Aéroports :

Lahr, Allemagne

Base aérienne 139 Lahr

latitude: 48-22-09N, longitude: 007-49-40E, altitude: 156 m

Observation

Le bulletin a été fait il y a 30 minutes, à 10:20 UTC
Vent 13 kt de sud/sud-ouest
Température 22°C
Humidité 50%
Pression 1000 hPa
Visibilité 10 km ou plus
Nuages fragmentés à une hauteur de 4500 ft

METAR: EDTL 291020Z 21013KT 9999 BKN045 22/11 Q1000

Heure: 12:50 (10:50 UTC)

Prévision

Le bulletin a été fait il y a 2 heures et 50 minutes, à 08:00 UTC
Prévision valable du 29 à 09 UTC au 29 à 18 UTC
Vent 9 kt de sud/sud-ouest
Visibilité 10 km ou plus
Nuages épars à une hauteur de 3500 ft
Probabilité 30% :
Temporairement
du 29 à 12 UTC au 29 à 18 UTC
Vent 15 kt de sud/sud-ouest avec des rafales jusqu'à 25 kt
Nuages fragmentés à une hauteur de 3000 ft, Cumulonimbus.
orage, pluie

TAF: EDTL 290800Z 2909/2918 20009KT 9999 SCT035 PROB30 TEMPO 2912/2918 21015G25KT TSRA BKN030CB

Observations et prévisions météorologiques de plus de 4000 aéroports (messages METAR et TAF).

Les stations disponibles sont représentées par des disques jaunes et rouges sur la carte.

Passer la souris dessus pour voir le nom de la station.

Cliquer dessus pour voir les observations et prévisions météorologiques.

Pour changer de carte: cliquez sur les boutons verts avec une croix noire pour zoomer, sur le bouton vert avec un tiret pour effectuer un zoom arrière, ou sur les flèches vertes pour les cartes adjacentes.


METAR-TAF: